Terminal Aerodrome Forecast
Issued by NWS

Home | Current Version | Previous Version | Text Only | Print | Product List | Glossary On
Versions: 1 2 3 4 5 6 7 8 9 10 11 12 13 14 15
000
FTAK31 PANC 240546 AAA
TAFATK
TAF AMD
PATK 240546Z 2406/2506 VRB03KT 6SM -SN BKN030 OVC040
      TEMPO 2406/2410 2SM -SN OVC015
     FM241000 02003KT P6SM OVC040
     FM242000 VRB05KT 5SM -SN SCT015 BKN025=

USA.gov is the U.S. government's official web portal to all federal, state and local government web resources and services.